Strona główna
METAR-TAF:

METAR-TAF

Lotnisko :

Port lotniczy Lima-Jorge Chávez

Lima, Peru

Szerokość geograficzna: 12-00S, Długość geograficzna: 077-07W, wysokość: 12 m

Aktualna obserwacja pogody

Raport powstał 6 minut temu, godzina 13:00 UTC
Wiatr 6 kt od południe
Temperatura 17°C
Wilgotność 94%
Ciśnienie 1016 hPa
Widzialność 10 km lub więcej
Zachmurzenie całkowite na wysokości 2500 ft

METAR: SPJC 161300Z 17006KT 9999 OVC025 17/16 Q1016 NOSIG RMK PP000

czas: 08:06 (13:06 UTC)

Prognoza

Raport powstał 2 godziny i 6 minut temu, godzina 11:00 UTC
Prognoza ważna od 16 godzina 12 UTC do 17 godzina 12 UTC
Wiatr 5 kt od zachodnio-południowy zachód
Widzialność 10 km lub więcej
Zachmurzenie całkowite na wysokości 2500 ft
Stopniowe zmiany
od 16 godzina 19 UTC do 16 godzina 21 UTC
Wiatr 10 kt od południe

TAF: SPJC 161100Z 1612/1712 25005KT 9999 OVC025 TX20/1619Z TN16/1710Z BECMG 1619/1621 18010KT

Obserwacja i prognoza pogody dla ponad 4000 lotnisk (raport METAR i TAF).

Dostępne stacje oznaczono żółtymi i czerwonymi punktami na mapie.

Najedź kursorem aby zobaczyć nazwę stacji.

Kliknij aby zobaczyć obserwacje i prognozy pogody.

Aby zmienić mapę: kliknij na zielony przycisk z czarnym krzyżykiem, aby powiększyć; na zielony przycisk z myślnikiem, aby pomniejszyć; na zielone strzałki, aby przejść do map sąsiednich.


METAR-TAF: